sensor_id;sensor_type;location;lat;lon;timestamp;pressure;altitude;pressure_sealevel;temperature;humidity
59531;BME280;45349;48.692;8.186;2024-02-23T00:01:09;147683.09;;;5.99;100.00
59531;BME280;45349;48.692;8.186;2024-02-23T00:03:37;147664.50;;;5.91;100.00
59531;BME280;45349;48.692;8.186;2024-02-23T00:06:04;147658.25;;;5.88;100.00
59531;BME280;45349;48.692;8.186;2024-02-23T00:08:30;147653.28;;;5.86;100.00
59531;BME280;45349;48.692;8.186;2024-02-23T00:10:57;147655.78;;;5.87;100.00
59531;BME280;45349;48.692;8.186;2024-02-23T00:13:25;147659.53;;;5.89;100.00
59531;BME280;45349;48.692;8.186;2024-02-23T00:15:52;147662.00;;;5.90;100.00
59531;BME280;45349;48.692;8.186;2024-02-23T00:18:18;147664.50;;;5.91;99.46
59531;BME280;45349;48.692;8.186;2024-02-23T00:20:46;147666.97;;;5.92;98.87
59531;BME280;45349;48.692;8.186;2024-02-23T00:23:12;147679.38;;;5.97;97.35
59531;BME280;45349;48.692;8.186;2024-02-23T00:25:39;147675.63;;;5.96;99.82
59531;BME280;45349;48.692;8.186;2024-02-23T00:28:06;147679.38;;;5.97;98.39
59531;BME280;45349;48.692;8.186;2024-02-23T00:30:34;147670.69;;;5.94;98.16
59531;BME280;45349;48.692;8.186;2024-02-23T00:33:01;147666.97;;;5.92;100.00
59531;BME280;45349;48.692;8.186;2024-02-23T00:35:27;147683.09;;;5.99;99.79
59531;BME280;45349;48.692;8.186;2024-02-23T00:37:54;147676.91;;;5.96;98.86
59531;BME280;45349;48.692;8.186;2024-02-23T00:40:20;147689.38;;;6.01;97.41
59531;BME280;45349;48.692;8.186;2024-02-23T00:42:48;147694.34;;;6.03;97.99
59531;BME280;45349;48.692;8.186;2024-02-23T00:45:15;147699.31;;;6.05;98.20
59531;BME280;45349;48.692;8.186;2024-02-23T00:47:44;147701.78;;;6.07;98.09
59531;BME280;45349;48.692;8.186;2024-02-23T00:50:12;147694.34;;;6.03;98.56
59531;BME280;45349;48.692;8.186;2024-02-23T00:52:39;147695.56;;;6.04;95.90
59531;BME280;45349;48.692;8.186;2024-02-23T00:55:07;147700.53;;;6.06;96.77
59531;BME280;45349;48.692;8.186;2024-02-23T00:57:34;147693.06;;;6.03;96.94
59531;BME280;45349;48.692;8.186;2024-02-23T01:00:01;147694.34;;;6.03;97.18
59531;BME280;45349;48.692;8.186;2024-02-23T01:02:30;147686.88;;;6.00;98.00
59531;BME280;45349;48.692;8.186;2024-02-23T01:04:58;147689.38;;;6.01;97.74
59531;BME280;45349;48.692;8.186;2024-02-23T01:07:25;147681.88;;;5.98;98.29
59531;BME280;45349;48.692;8.186;2024-02-23T01:09:51;147693.06;;;6.03;95.88
59531;BME280;45349;48.692;8.186;2024-02-23T01:12:18;147706.75;;;6.09;97.67
59531;BME280;45349;48.692;8.186;2024-02-23T01:14:47;147700.53;;;6.06;96.78
59531;BME280;45349;48.692;8.186;2024-02-23T01:17:14;147704.28;;;6.08;97.64
59531;BME280;45349;48.692;8.186;2024-02-23T01:19:41;147691.84;;;6.02;100.00
59531;BME280;45349;48.692;8.186;2024-02-23T01:22:09;147686.88;;;6.00;97.86
59531;BME280;45349;48.692;8.186;2024-02-23T01:24:36;147681.88;;;5.98;99.07
59531;BME280;45349;48.692;8.186;2024-02-23T01:27:03;147684.34;;;5.99;99.48
59531;BME280;45349;48.692;8.186;2024-02-23T01:29:29;147676.91;;;5.96;100.00
59531;BME280;45349;48.692;8.186;2024-02-23T01:31:56;147668.19;;;5.93;100.00
59531;BME280;45349;48.692;8.186;2024-02-23T01:34:23;147663.22;;;5.90;100.00
59531;BME280;45349;48.692;8.186;2024-02-23T01:36:49;147652.06;;;5.86;100.00
59531;BME280;45349;48.692;8.186;2024-02-23T01:39:17;147648.31;;;5.84;100.00
59531;BME280;45349;48.692;8.186;2024-02-23T01:41:44;147655.78;;;5.87;100.00
59531;BME280;45349;48.692;8.186;2024-02-23T01:44:11;147673.16;;;5.95;98.34
59531;BME280;45349;48.692;8.186;2024-02-23T01:46:37;147660.75;;;5.89;97.59
59531;BME280;45349;48.692;8.186;2024-02-23T01:49:06;147668.19;;;5.93;95.89
59531;BME280;45349;48.692;8.186;2024-02-23T01:51:34;147660.75;;;5.89;97.67
59531;BME280;45349;48.692;8.186;2024-02-23T01:54:01;147648.31;;;5.84;98.21
59531;BME280;45349;48.692;8.186;2024-02-23T01:56:30;147653.28;;;5.86;95.45
59531;BME280;45349;48.692;8.186;2024-02-23T01:58:58;147647.09;;;5.84;95.21
59531;BME280;45349;48.692;8.186;2024-02-23T02:01:25;147629.72;;;5.76;95.52
59531;BME280;45349;48.692;8.186;2024-02-23T02:03:51;147624.75;;;5.74;97.08
59531;BME280;45349;48.692;8.186;2024-02-23T02:06:18;147624.75;;;5.74;96.80
59531;BME280;45349;48.692;8.186;2024-02-23T02:08:48;147614.84;;;5.70;96.12
59531;BME280;45349;48.692;8.186;2024-02-23T02:11:14;147607.38;;;5.67;95.85
59531;BME280;45349;48.692;8.186;2024-02-23T02:13:42;147614.84;;;5.70;91.91
59531;BME280;45349;48.692;8.186;2024-02-23T02:16:09;147607.38;;;5.67;93.28
59531;BME280;45349;48.692;8.186;2024-02-23T02:18:36;147607.38;;;5.67;92.03
59531;BME280;45349;48.692;8.186;2024-02-23T02:21:03;147606.16;;;5.67;92.80
59531;BME280;45349;48.692;8.186;2024-02-23T02:23:30;147588.78;;;5.59;90.45
59531;BME280;45349;48.692;8.186;2024-02-23T02:25:57;147585.03;;;5.58;91.08
59531;BME280;45349;48.692;8.186;2024-02-23T02:28:24;147583.81;;;5.57;92.76
59531;BME280;45349;48.692;8.186;2024-02-23T02:30:53;147567.66;;;5.51;90.80
59531;BME280;45349;48.692;8.186;2024-02-23T02:33:20;147566.44;;;5.50;93.06
59531;BME280;45349;48.692;8.186;2024-02-23T02:35:46;147565.19;;;5.50;91.05
59531;BME280;45349;48.692;8.186;2024-02-23T02:38:13;147544.09;;;5.41;89.62
59531;BME280;45349;48.692;8.186;2024-02-23T02:40:39;147540.34;;;5.39;89.31
59531;BME280;45349;48.692;8.186;2024-02-23T02:43:06;147530.44;;;5.35;89.72
59531;BME280;45349;48.692;8.186;2024-02-23T02:45:33;147534.16;;;5.37;90.54
59531;BME280;45349;48.692;8.186;2024-02-23T02:48:05;147525.47;;;5.33;90.03
59531;BME280;45349;48.692;8.186;2024-02-23T02:50:32;147525.47;;;5.33;88.91
59531;BME280;45349;48.692;8.186;2024-02-23T02:52:58;147542.84;;;5.40;86.55
59531;BME280;45349;48.692;8.186;2024-02-23T02:55:25;147551.53;;;5.44;84.60
59531;BME280;45349;48.692;8.186;2024-02-23T02:57:51;147545.31;;;5.41;85.42
59531;BME280;45349;48.692;8.186;2024-02-23T03:00:18;147552.75;;;5.44;84.74
59531;BME280;45349;48.692;8.186;2024-02-23T03:02:45;147542.84;;;5.40;86.96
59531;BME280;45349;48.692;8.186;2024-02-23T03:05:13;147544.09;;;5.41;86.21
59531;BME280;45349;48.692;8.186;2024-02-23T03:07:39;147557.72;;;5.46;83.33
59531;BME280;45349;48.692;8.186;2024-02-23T03:10:07;147545.31;;;5.41;84.89
59531;BME280;45349;48.692;8.186;2024-02-23T03:12:33;147557.72;;;5.46;83.92
59531;BME280;45349;48.692;8.186;2024-02-23T03:15:00;147542.84;;;5.40;82.68
59531;BME280;45349;48.692;8.186;2024-02-23T03:17:28;147562.69;;;5.49;80.39
59531;BME280;45349;48.692;8.186;2024-02-23T03:19:54;147550.28;;;5.43;81.64
59531;BME280;45349;48.692;8.186;2024-02-23T03:22:22;147539.13;;;5.39;81.01
59531;BME280;45349;48.692;8.186;2024-02-23T03:24:49;147526.72;;;5.34;82.32
59531;BME280;45349;48.692;8.186;2024-02-23T03:27:15;147506.88;;;5.25;82.71
59531;BME280;45349;48.692;8.186;2024-02-23T03:29:42;147506.88;;;5.25;78.66
59531;BME280;45349;48.692;8.186;2024-02-23T03:32:09;147516.78;;;5.29;78.29
59531;BME280;45349;48.692;8.186;2024-02-23T03:34:35;147515.56;;;5.29;78.03
59531;BME280;45349;48.692;8.186;2024-02-23T03:37:02;147503.16;;;5.24;79.74
59531;BME280;45349;48.692;8.186;2024-02-23T03:39:30;147506.88;;;5.25;80.17
59531;BME280;45349;48.692;8.186;2024-02-23T03:41:58;147506.88;;;5.25;81.38
59531;BME280;45349;48.692;8.186;2024-02-23T03:44:24;147503.16;;;5.24;81.42
59531;BME280;45349;48.692;8.186;2024-02-23T03:46:51;147505.66;;;5.25;80.61
59531;BME280;45349;48.692;8.186;2024-02-23T03:49:17;147515.56;;;5.29;79.89
59531;BME280;45349;48.692;8.186;2024-02-23T03:51:44;147511.84;;;5.27;83.04
59531;BME280;45349;48.692;8.186;2024-02-23T03:54:11;147514.31;;;5.28;81.06
59531;BME280;45349;48.692;8.186;2024-02-23T03:56:40;147513.09;;;5.28;79.65
59531;BME280;45349;48.692;8.186;2024-02-23T03:59:07;147504.38;;;5.24;80.59
59531;BME280;45349;48.692;8.186;2024-02-23T04:04:17;147489.50;;;5.18;80.75
59531;BME280;45349;48.692;8.186;2024-02-23T04:06:44;147496.94;;;5.21;82.03
59531;BME280;45349;48.692;8.186;2024-02-23T04:09:10;147500.69;;;5.23;80.88
59531;BME280;45349;48.692;8.186;2024-02-23T04:11:37;147509.34;;;5.26;79.87
59531;BME280;45349;48.692;8.186;2024-02-23T04:14:05;147485.78;;;5.16;81.98
59531;BME280;45349;48.692;8.186;2024-02-23T04:16:32;147484.53;;;5.16;80.57
59531;BME280;45349;48.692;8.186;2024-02-23T04:18:58;147477.09;;;5.13;81.10
59531;BME280;45349;48.692;8.186;2024-02-23T04:21:25;147464.69;;;5.08;80.55
59531;BME280;45349;48.692;8.186;2024-02-23T04:23:52;147464.69;;;5.08;81.39
59531;BME280;45349;48.692;8.186;2024-02-23T04:26:18;147462.19;;;5.07;80.77
59531;BME280;45349;48.692;8.186;2024-02-23T04:28:45;147463.47;;;5.07;80.65
59531;BME280;45349;48.692;8.186;2024-02-23T04:31:13;147443.59;;;4.99;79.74
59531;BME280;45349;48.692;8.186;2024-02-23T04:33:40;147446.09;;;5.00;81.34
59531;BME280;45349;48.692;8.186;2024-02-23T04:36:07;147433.69;;;4.95;80.61
59531;BME280;45349;48.692;8.186;2024-02-23T04:38:34;147415.03;;;4.87;82.69
59531;BME280;45349;48.692;8.186;2024-02-23T04:41:02;147408.88;;;4.84;81.39
59531;BME280;45349;48.692;8.186;2024-02-23T04:43:29;147393.97;;;4.78;82.34
59531;BME280;45349;48.692;8.186;2024-02-23T04:45:56;147371.66;;;4.69;82.79
59531;BME280;45349;48.692;8.186;2024-02-23T04:48:24;147364.19;;;4.66;83.41
59531;BME280;45349;48.692;8.186;2024-02-23T04:50:51;147381.56;;;4.73;82.86
59531;BME280;45349;48.692;8.186;2024-02-23T04:53:17;147385.31;;;4.75;82.19
59531;BME280;45349;48.692;8.186;2024-02-23T04:55:44;147385.31;;;4.75;82.32
59531;BME280;45349;48.692;8.186;2024-02-23T04:58:11;147393.97;;;4.78;82.58
59531;BME280;45349;48.692;8.186;2024-02-23T05:00:38;147385.31;;;4.75;83.52
59531;BME280;45349;48.692;8.186;2024-02-23T05:03:05;147379.09;;;4.72;83.50
59531;BME280;45349;48.692;8.186;2024-02-23T05:05:35;147384.06;;;4.74;83.87
59531;BME280;45349;48.692;8.186;2024-02-23T05:08:02;147375.38;;;4.70;82.56
59531;BME280;45349;48.692;8.186;2024-02-23T05:10:28;147370.44;;;4.68;84.02
59531;BME280;45349;48.692;8.186;2024-02-23T05:12:58;147385.31;;;4.75;80.99
59531;BME280;45349;48.692;8.186;2024-02-23T05:15:25;147393.97;;;4.78;81.58
59531;BME280;45349;48.692;8.186;2024-02-23T05:17:51;147395.19;;;4.79;81.83
59531;BME280;45349;48.692;8.186;2024-02-23T05:20:18;147397.69;;;4.80;81.66
59531;BME280;45349;48.692;8.186;2024-02-23T05:22:46;147398.94;;;4.80;81.21
59531;BME280;45349;48.692;8.186;2024-02-23T05:25:13;147395.19;;;4.79;80.51
59531;BME280;45349;48.692;8.186;2024-02-23T05:27:40;147390.28;;;4.77;79.80
59531;BME280;45349;48.692;8.186;2024-02-23T05:30:07;147381.56;;;4.73;82.78
59531;BME280;45349;48.692;8.186;2024-02-23T05:32:34;147374.13;;;4.70;81.13
59531;BME280;45349;48.692;8.186;2024-02-23T05:35:01;147364.19;;;4.66;82.24
59531;BME280;45349;48.692;8.186;2024-02-23T05:37:28;147366.69;;;4.67;83.13
59531;BME280;45349;48.692;8.186;2024-02-23T05:39:56;147376.59;;;4.71;82.85
59531;BME280;45349;48.692;8.186;2024-02-23T05:42:25;147374.13;;;4.70;83.53
59531;BME280;45349;48.692;8.186;2024-02-23T05:44:51;147385.31;;;4.75;83.23
59531;BME280;45349;48.692;8.186;2024-02-23T05:47:18;147376.59;;;4.71;84.38
59531;BME280;45349;48.692;8.186;2024-02-23T05:49:46;147360.50;;;4.64;86.58
59531;BME280;45349;48.692;8.186;2024-02-23T05:52:13;147346.84;;;4.58;86.53
59531;BME280;45349;48.692;8.186;2024-02-23T05:54:40;147329.47;;;4.51;87.84
59531;BME280;45349;48.692;8.186;2024-02-23T05:57:08;147322.03;;;4.48;86.82
59531;BME280;45349;48.692;8.186;2024-02-23T05:59:34;147309.63;;;4.43;87.17
59531;BME280;45349;48.692;8.186;2024-02-23T06:02:01;147277.38;;;4.29;89.64
59531;BME280;45349;48.692;8.186;2024-02-23T06:04:28;147269.94;;;4.26;89.21
59531;BME280;45349;48.692;8.186;2024-02-23T06:06:54;147246.41;;;4.17;89.17
59531;BME280;45349;48.692;8.186;2024-02-23T06:09:21;147277.38;;;4.29;87.90
59531;BME280;45349;48.692;8.186;2024-02-23T06:11:48;147267.47;;;4.25;86.14
59531;BME280;45349;48.692;8.186;2024-02-23T06:14:16;147230.31;;;4.10;86.08
59531;BME280;45349;48.692;8.186;2024-02-23T06:16:43;147255.09;;;4.20;85.11
59531;BME280;45349;48.692;8.186;2024-02-23T06:19:10;147241.44;;;4.14;86.13
59531;BME280;45349;48.692;8.186;2024-02-23T06:21:37;147221.59;;;4.06;85.83
59531;BME280;45349;48.692;8.186;2024-02-23T06:24:04;147199.28;;;3.97;87.55
59531;BME280;45349;48.692;8.186;2024-02-23T06:26:33;147179.44;;;3.89;86.49
59531;BME280;45349;48.692;8.186;2024-02-23T06:28:59;147162.09;;;3.81;88.30
59531;BME280;45349;48.692;8.186;2024-02-23T06:31:27;147148.47;;;3.76;88.76
59531;BME280;45349;48.692;8.186;2024-02-23T06:33:54;147131.13;;;3.68;89.00
59531;BME280;45349;48.692;8.186;2024-02-23T06:36:21;147134.88;;;3.70;90.44
59531;BME280;45349;48.692;8.186;2024-02-23T06:38:47;147133.59;;;3.69;91.31
59531;BME280;45349;48.692;8.186;2024-02-23T06:41:14;147188.16;;;3.92;88.98
59531;BME280;45349;48.692;8.186;2024-02-23T06:43:41;147200.53;;;3.97;89.24
59531;BME280;45349;48.692;8.186;2024-02-23T06:46:08;147190.63;;;3.93;89.92
59531;BME280;45349;48.692;8.186;2024-02-23T06:48:36;147214.16;;;4.03;89.10
59531;BME280;45349;48.692;8.186;2024-02-23T06:51:03;147170.78;;;3.85;89.36
59531;BME280;45349;48.692;8.186;2024-02-23T06:53:30;147178.22;;;3.88;90.07
59531;BME280;45349;48.692;8.186;2024-02-23T06:55:57;147173.28;;;3.86;90.08
59531;BME280;45349;48.692;8.186;2024-02-23T06:58:26;147163.34;;;3.82;90.28
59531;BME280;45349;48.692;8.186;2024-02-23T07:00:52;147158.38;;;3.80;90.85
59531;BME280;45349;48.692;8.186;2024-02-23T07:03:19;147183.19;;;3.90;90.44
59531;BME280;45349;48.692;8.186;2024-02-23T07:05:47;147217.91;;;4.05;87.00
59531;BME280;45349;48.692;8.186;2024-02-23T07:08:15;147248.88;;;4.18;84.38
59531;BME280;45349;48.692;8.186;2024-02-23T07:10:42;147251.34;;;4.19;84.78
59531;BME280;45349;48.692;8.186;2024-02-23T07:13:09;147235.25;;;4.12;85.30
59531;BME280;45349;48.692;8.186;2024-02-23T07:15:35;147216.63;;;4.04;85.14
59531;BME280;45349;48.692;8.186;2024-02-23T07:18:03;147201.75;;;3.98;85.83
59531;BME280;45349;48.692;8.186;2024-02-23T07:20:29;147195.59;;;3.95;85.57
59531;BME280;45349;48.692;8.186;2024-02-23T07:22:57;147191.84;;;3.94;85.82
59531;BME280;45349;48.692;8.186;2024-02-23T07:25:24;147219.13;;;4.05;85.35
59531;BME280;45349;48.692;8.186;2024-02-23T07:27:51;147229.03;;;4.09;83.93
59531;BME280;45349;48.692;8.186;2024-02-23T07:30:18;147261.28;;;4.23;80.44
59531;BME280;45349;48.692;8.186;2024-02-23T07:32:45;147251.34;;;4.19;82.11
59531;BME280;45349;48.692;8.186;2024-02-23T07:35:12;147248.88;;;4.18;83.14
59531;BME280;45349;48.692;8.186;2024-02-23T07:37:39;147257.59;;;4.21;82.75
59531;BME280;45349;48.692;8.186;2024-02-23T07:40:08;147266.25;;;4.25;82.13
59531;BME280;45349;48.692;8.186;2024-02-23T07:42:34;147281.13;;;4.31;81.36
59531;BME280;45349;48.692;8.186;2024-02-23T07:45:02;147307.16;;;4.42;80.43
59531;BME280;45349;48.692;8.186;2024-02-23T07:47:30;147315.84;;;4.46;80.56
59531;BME280;45349;48.692;8.186;2024-02-23T07:49:56;147356.75;;;4.63;78.91
59531;BME280;45349;48.692;8.186;2024-02-23T07:52:23;147371.66;;;4.69;78.79
59531;BME280;45349;48.692;8.186;2024-02-23T07:54:50;147391.50;;;4.77;77.74
59531;BME280;45349;48.692;8.186;2024-02-23T07:57:19;147418.78;;;4.88;77.42
59531;BME280;45349;48.692;8.186;2024-02-23T07:59:46;147428.72;;;4.93;75.59
59531;BME280;45349;48.692;8.186;2024-02-23T08:02:13;147444.81;;;4.99;74.32
59531;BME280;45349;48.692;8.186;2024-02-23T08:04:40;147447.31;;;5.00;74.06
59531;BME280;45349;48.692;8.186;2024-02-23T08:07:07;147448.56;;;5.01;72.87
59531;BME280;45349;48.692;8.186;2024-02-23T08:09:34;147460.97;;;5.06;72.21
59531;BME280;45349;48.692;8.186;2024-02-23T08:12:00;147456.00;;;5.04;73.34
59531;BME280;45349;48.692;8.186;2024-02-23T08:14:28;147454.75;;;5.03;74.33
59531;BME280;45349;48.692;8.186;2024-02-23T08:16:55;147462.19;;;5.07;73.36
59531;BME280;45349;48.692;8.186;2024-02-23T08:19:22;147467.16;;;5.09;73.39
59531;BME280;45349;48.692;8.186;2024-02-23T08:21:48;147473.38;;;5.11;73.58
59531;BME280;45349;48.692;8.186;2024-02-23T08:24:15;147489.50;;;5.18;73.48
59531;BME280;45349;48.692;8.186;2024-02-23T08:26:42;147500.69;;;5.23;73.64
59531;BME280;45349;48.692;8.186;2024-02-23T08:29:09;147530.44;;;5.35;73.12
59531;BME280;45349;48.692;8.186;2024-02-23T08:31:37;147544.09;;;5.41;72.54
59531;BME280;45349;48.692;8.186;2024-02-23T08:34:04;147554.03;;;5.45;72.82
59531;BME280;45349;48.692;8.186;2024-02-23T08:36:30;147570.13;;;5.52;72.17
59531;BME280;45349;48.692;8.186;2024-02-23T08:38:57;147585.03;;;5.58;70.84
59531;BME280;45349;48.692;8.186;2024-02-23T08:41:24;147621.06;;;5.73;71.27
59531;BME280;45349;48.692;8.186;2024-02-23T08:43:50;147659.53;;;5.89;69.82
59531;BME280;45349;48.692;8.186;2024-02-23T08:46:17;147714.19;;;6.12;68.86
59531;BME280;45349;48.692;8.186;2024-02-23T08:48:46;147734.06;;;6.20;69.23
59531;BME280;45349;48.692;8.186;2024-02-23T08:51:13;147787.44;;;6.42;68.75
59531;BME280;45349;48.692;8.186;2024-02-23T08:53:40;147885.56;;;6.83;65.73
59531;BME280;45349;48.692;8.186;2024-02-23T08:56:07;147871.94;;;6.77;67.54
59531;BME280;45349;48.692;8.186;2024-02-23T08:58:34;147865.69;;;6.75;65.64
59531;BME280;45349;48.692;8.186;2024-02-23T09:01:01;147834.66;;;6.62;65.43
59531;BME280;45349;48.692;8.186;2024-02-23T09:03:29;147883.09;;;6.82;66.43
59531;BME280;45349;48.692;8.186;2024-02-23T09:05:58;147916.59;;;6.96;65.70
59531;BME280;45349;48.692;8.186;2024-02-23T09:08:25;147931.50;;;7.02;64.42
59531;BME280;45349;48.692;8.186;2024-02-23T09:10:52;147968.78;;;7.18;64.44
59531;BME280;45349;48.692;8.186;2024-02-23T09:13:18;147947.69;;;7.09;64.06
59531;BME280;45349;48.692;8.186;2024-02-23T09:15:44;147960.13;;;7.14;64.29
59531;BME280;45349;48.692;8.186;2024-02-23T09:18:11;147997.41;;;7.30;65.00
59531;BME280;45349;48.692;8.186;2024-02-23T09:20:38;147992.44;;;7.28;64.27
59531;BME280;45349;48.692;8.186;2024-02-23T09:23:06;148012.31;;;7.36;63.49
59531;BME280;45349;48.692;8.186;2024-02-23T09:25:33;147987.47;;;7.26;64.82
59531;BME280;45349;48.692;8.186;2024-02-23T09:27:59;148037.13;;;7.46;64.87
59531;BME280;45349;48.692;8.186;2024-02-23T09:30:26;148040.88;;;7.48;64.22
59531;BME280;45349;48.692;8.186;2024-02-23T09:32:52;148110.50;;;7.77;63.88
59531;BME280;45349;48.692;8.186;2024-02-23T09:35:19;148108.00;;;7.76;64.73
59531;BME280;45349;48.692;8.186;2024-02-23T09:37:46;148057.00;;;7.54;63.28
59531;BME280;45349;48.692;8.186;2024-02-23T09:40:14;148011.06;;;7.35;65.03
59531;BME280;45349;48.692;8.186;2024-02-23T09:42:42;148050.81;;;7.52;64.82
59531;BME280;45349;48.692;8.186;2024-02-23T09:45:10;148054.53;;;7.53;63.59
59531;BME280;45349;48.692;8.186;2024-02-23T09:47:38;148042.09;;;7.48;62.74
59531;BME280;45349;48.692;8.186;2024-02-23T09:50:06;148024.75;;;7.41;65.37
59531;BME280;45349;48.692;8.186;2024-02-23T09:52:34;148002.38;;;7.32;63.43
59531;BME280;45349;48.692;8.186;2024-02-23T09:55:01;148014.81;;;7.37;66.60
59531;BME280;45349;48.692;8.186;2024-02-23T09:57:30;147942.72;;;7.07;66.83
59531;BME280;45349;48.692;8.186;2024-02-23T09:59:57;147982.50;;;7.23;65.51
59531;BME280;45349;48.692;8.186;2024-02-23T10:02:25;147996.13;;;7.29;66.99
59531;BME280;45349;48.692;8.186;2024-02-23T10:04:53;148045.84;;;7.50;67.10
59531;BME280;45349;48.692;8.186;2024-02-23T10:07:20;147982.50;;;7.23;65.21
59531;BME280;45349;48.692;8.186;2024-02-23T10:09:47;148039.63;;;7.47;63.56
59531;BME280;45349;48.692;8.186;2024-02-23T10:12:15;148065.75;;;7.58;63.68
59531;BME280;45349;48.692;8.186;2024-02-23T10:14:44;148081.88;;;7.65;66.53
59531;BME280;45349;48.692;8.186;2024-02-23T10:17:11;148117.97;;;7.80;64.83
59531;BME280;45349;48.692;8.186;2024-02-23T10:19:37;148161.44;;;7.98;62.08
59531;BME280;45349;48.692;8.186;2024-02-23T10:22:04;148096.78;;;7.71;64.19
59531;BME280;45349;48.692;8.186;2024-02-23T10:24:31;148076.91;;;7.63;66.59
59531;BME280;45349;48.692;8.186;2024-02-23T10:26:58;148145.31;;;7.91;65.08
59531;BME280;45349;48.692;8.186;2024-02-23T10:29:25;148221.13;;;8.23;65.55
59531;BME280;45349;48.692;8.186;2024-02-23T10:31:56;148247.22;;;8.34;61.20
59531;BME280;45349;48.692;8.186;2024-02-23T10:34:24;148249.72;;;8.35;64.18
59531;BME280;45349;48.692;8.186;2024-02-23T10:36:51;148324.38;;;8.66;65.16
59531;BME280;45349;48.692;8.186;2024-02-23T10:39:19;148416.41;;;9.04;62.28
59531;BME280;45349;48.692;8.186;2024-02-23T10:41:56;148375.38;;;8.87;62.09
59531;BME280;45349;48.692;8.186;2024-02-23T10:44:23;148489.84;;;9.35;62.34
59531;BME280;45349;48.692;8.186;2024-02-23T10:46:51;148486.09;;;9.33;59.80
59531;BME280;45349;48.692;8.186;2024-02-23T10:49:23;148503.53;;;9.40;58.50
59531;BME280;45349;48.692;8.186;2024-02-23T10:51:52;148591.88;;;9.77;59.04
59531;BME280;45349;48.692;8.186;2024-02-23T10:54:19;148596.84;;;9.79;58.72
59531;BME280;45349;48.692;8.186;2024-02-23T10:56:49;148420.16;;;9.06;60.95
59531;BME280;45349;48.692;8.186;2024-02-23T10:59:16;148385.31;;;8.91;61.77
59531;BME280;45349;48.692;8.186;2024-02-23T11:01:45;148433.81;;;9.11;60.59
59531;BME280;45349;48.692;8.186;2024-02-23T11:04:14;148260.94;;;8.39;62.97
59531;BME280;45349;48.692;8.186;2024-02-23T11:06:49;148258.44;;;8.38;63.55
59531;BME280;45349;48.692;8.186;2024-02-23T11:09:15;148260.94;;;8.39;65.19
59531;BME280;45349;48.692;8.186;2024-02-23T11:11:51;148260.94;;;8.39;64.38
59531;BME280;45349;48.692;8.186;2024-02-23T11:14:29;148318.16;;;8.63;62.71
59531;BME280;45349;48.692;8.186;2024-02-23T11:16:55;148269.63;;;8.43;60.46
59531;BME280;45349;48.692;8.186;2024-02-23T11:19:32;148293.28;;;8.53;62.95
59531;BME280;45349;48.692;8.186;2024-02-23T11:22:00;148371.66;;;8.85;62.73
59531;BME280;45349;48.692;8.186;2024-02-23T11:24:28;148487.38;;;9.34;61.12
59531;BME280;45349;48.692;8.186;2024-02-23T11:26:56;148532.19;;;9.52;59.07
59531;BME280;45349;48.692;8.186;2024-02-23T11:29:26;148596.84;;;9.79;58.44
59531;BME280;45349;48.692;8.186;2024-02-23T11:31:54;148452.53;;;9.19;58.37
59531;BME280;45349;48.692;8.186;2024-02-23T11:34:26;148447.53;;;9.17;59.67
59531;BME280;45349;48.692;8.186;2024-02-23T11:36:53;148535.88;;;9.54;61.11
59531;BME280;45349;48.692;8.186;2024-02-23T11:39:22;148440.06;;;9.14;60.70
59531;BME280;45349;48.692;8.186;2024-02-23T11:41:49;148472.44;;;9.27;58.62
59531;BME280;45349;48.692;8.186;2024-02-23T11:44:16;148474.91;;;9.28;60.20
59531;BME280;45349;48.692;8.186;2024-02-23T11:46:43;148438.81;;;9.13;58.82
59531;BME280;45349;48.692;8.186;2024-02-23T11:49:11;148478.63;;;9.30;58.59
59531;BME280;45349;48.692;8.186;2024-02-23T11:51:37;148462.47;;;9.23;60.79
59531;BME280;45349;48.692;8.186;2024-02-23T11:54:04;148412.69;;;9.03;61.72
59531;BME280;45349;48.692;8.186;2024-02-23T11:56:32;148361.72;;;8.81;62.68
59531;BME280;45349;48.692;8.186;2024-02-23T11:58:59;148430.13;;;9.10;62.52
59531;BME280;45349;48.692;8.186;2024-02-23T12:01:28;148458.72;;;9.22;59.93
59531;BME280;45349;48.692;8.186;2024-02-23T12:03:55;148489.84;;;9.35;61.08
59531;BME280;45349;48.692;8.186;2024-02-23T12:06:22;148492.34;;;9.36;61.30
59531;BME280;45349;48.692;8.186;2024-02-23T12:08:49;148487.38;;;9.34;60.07
59531;BME280;45349;48.692;8.186;2024-02-23T12:11:16;148515.97;;;9.45;56.82
59531;BME280;45349;48.692;8.186;2024-02-23T12:13:44;148425.16;;;9.08;59.04
59531;BME280;45349;48.692;8.186;2024-02-23T12:16:11;148438.81;;;9.13;61.16
59531;BME280;45349;48.692;8.186;2024-02-23T12:18:38;148430.13;;;9.10;59.90
59531;BME280;45349;48.692;8.186;2024-02-23T12:21:06;148413.91;;;9.03;60.78
59531;BME280;45349;48.692;8.186;2024-02-23T12:23:40;148427.63;;;9.09;60.08
59531;BME280;45349;48.692;8.186;2024-02-23T12:26:07;148300.72;;;8.56;61.51
59531;BME280;45349;48.692;8.186;2024-02-23T12:28:34;148369.19;;;8.84;62.81
59531;BME280;45349;48.692;8.186;2024-02-23T12:31:03;148441.28;;;9.14;62.03
59531;BME280;45349;48.692;8.186;2024-02-23T12:33:32;148524.69;;;9.49;61.09
59531;BME280;45349;48.692;8.186;2024-02-23T12:36:00;148522.22;;;9.48;62.40
59531;BME280;45349;48.692;8.186;2024-02-23T12:38:27;148562.00;;;9.65;61.40
59531;BME280;45349;48.692;8.186;2024-02-23T12:40:54;148491.06;;;9.35;60.80
59531;BME280;45349;48.692;8.186;2024-02-23T12:43:21;148502.31;;;9.40;61.10
59531;BME280;45349;48.692;8.186;2024-02-23T12:45:49;148515.97;;;9.45;59.53
59531;BME280;45349;48.692;8.186;2024-02-23T12:48:18;148544.56;;;9.57;59.31
59531;BME280;45349;48.692;8.186;2024-02-23T12:50:45;148565.75;;;9.66;59.87
59531;BME280;45349;48.692;8.186;2024-02-23T12:53:30;148584.41;;;9.74;60.28
59531;BME280;45349;48.692;8.186;2024-02-23T12:55:57;148630.50;;;9.93;59.42
59531;BME280;45349;48.692;8.186;2024-02-23T12:58:24;148671.56;;;10.10;61.60
59531;BME280;45349;48.692;8.186;2024-02-23T13:00:51;148674.03;;;10.11;59.60
59531;BME280;45349;48.692;8.186;2024-02-23T13:03:19;148700.19;;;10.22;60.13